Nome, Alaska
Current Conditions -  °F | °C
As of 2:53 AM on Tuesday 27 Jan 2015 (Local Time) from PAOM Reporting Station
Few Clouds Few Clouds  
Wind Chill: -10°   Ceiling: Unl
Heat Index:   Visibility: 10mi
Dew Point: -11°   Wind: 6mph
Humidity: 57%   Direction: 30°NNE
Pressure: 30.11"   Gusts: NA
Location:  64.5°N, 165.41°W
Report Text: PAOM 271153Z 03005KT 10SM FEW250 M17/M24 A3011 RMK SLP197 4/012 T11721239 11172 21300 58002 VIA AUTODIAL
Loading
Personal Weather Stations






























Interactive Weather Map New forecast layout! Learn more

10-Day Weather Forecast

Advertisements
Track Severe Weather on mobile